createdAt,value
2019-05-19T00:00:29.625Z,4.42
2019-05-19T00:02:56.907Z,4.45
2019-05-19T00:05:24.282Z,4.90
2019-05-19T00:07:51.640Z,4.80
2019-05-19T00:10:18.863Z,5.08
2019-05-19T00:12:46.146Z,5.33
2019-05-19T00:15:13.484Z,6.17
2019-05-19T00:18:00.203Z,5.67
2019-05-19T00:20:27.434Z,5.07
2019-05-19T00:22:54.767Z,5.53
2019-05-19T00:25:22.033Z,4.90
2019-05-19T00:27:49.408Z,5.20
2019-05-19T00:30:16.649Z,4.42
2019-05-19T00:32:43.925Z,5.37
2019-05-19T00:35:11.359Z,6.42
2019-05-19T00:37:38.597Z,6.17
2019-05-19T00:40:05.931Z,5.83
2019-05-19T00:42:33.197Z,6.25
2019-05-19T00:45:00.426Z,6.53
2019-05-19T00:47:27.712Z,7.15
2019-05-19T00:49:55.188Z,6.05
2019-05-19T00:52:22.455Z,6.27
2019-05-19T00:54:49.707Z,6.92
2019-05-19T00:57:16.957Z,7.17
2019-05-19T00:59:45.074Z,6.67
2019-05-19T01:02:12.344Z,6.78
2019-05-19T01:04:39.567Z,6.50
2019-05-19T01:07:06.784Z,7.15
2019-05-19T01:09:34.024Z,8.08
2019-05-19T01:12:01.243Z,7.20
2019-05-19T01:14:28.475Z,7.87
2019-05-19T01:16:55.719Z,7.57
2019-05-19T01:19:22.964Z,8.07
2019-05-19T01:21:50.908Z,8.50
2019-05-19T01:24:18.275Z,8.40
2019-05-19T01:26:45.547Z,8.90
2019-05-19T01:29:12.915Z,8.70
2019-05-19T01:31:40.231Z,8.10
2019-05-19T01:34:07.560Z,8.17
2019-05-19T01:36:34.802Z,7.62
2019-05-19T01:39:02.067Z,8.63
2019-05-19T01:41:29.355Z,8.97
2019-05-19T01:43:56.683Z,8.57
2019-05-19T01:46:24.171Z,9.85
2019-05-19T01:48:51.448Z,8.87
2019-05-19T01:51:18.720Z,9.37
2019-05-19T01:53:45.951Z,10.82
2019-05-19T01:56:13.196Z,12.07
2019-05-19T01:58:40.408Z,11.22
2019-05-19T02:01:07.636Z,12.27
2019-05-19T02:03:35.823Z,13.87
2019-05-19T02:06:03.481Z,12.57
2019-05-19T02:08:31.925Z,13.15
2019-05-19T02:10:59.649Z,13.10
2019-05-19T02:13:27.316Z,11.80
2019-05-19T02:15:55.002Z,13.97
2019-05-19T02:18:25.253Z,16.50
2019-05-19T02:20:52.525Z,15.50
2019-05-19T02:23:19.766Z,15.10
2019-05-19T02:25:46.999Z,17.43
2019-05-19T02:28:14.235Z,15.98
2019-05-19T02:30:41.461Z,16.47
2019-05-19T02:33:08.786Z,15.97
2019-05-19T02:35:36.036Z,18.73
2019-05-19T02:38:03.284Z,19.90
2019-05-19T02:40:32.357Z,19.10
2019-05-19T02:43:00.707Z,19.05
2019-05-19T02:45:30.746Z,20.77
2019-05-19T02:47:59.195Z,20.40
2019-05-19T02:50:28.436Z,20.57
2019-05-19T02:52:56.310Z,20.07
2019-05-19T02:55:24.331Z,16.60
2019-05-19T02:57:52.963Z,16.10
2019-05-19T03:00:32.294Z,13.75
2019-05-19T03:02:59.556Z,13.48
2019-05-19T03:05:26.828Z,13.17
2019-05-19T03:07:54.164Z,13.23
2019-05-19T03:10:21.401Z,12.93
2019-05-19T03:12:48.721Z,13.17
2019-05-19T03:15:15.997Z,13.93
2019-05-19T03:17:43.387Z,13.17
2019-05-19T03:20:10.719Z,13.17
2019-05-19T03:22:37.964Z,12.67
2019-05-19T03:25:05.590Z,14.40
2019-05-19T03:27:32.803Z,15.70
2019-05-19T03:30:19.597Z,13.17
2019-05-19T03:32:51.605Z,14.03
2019-05-19T03:35:18.851Z,14.50
2019-05-19T03:37:46.194Z,14.17
2019-05-19T03:40:19.198Z,15.48
2019-05-19T03:42:47.571Z,14.53
2019-05-19T03:45:14.827Z,15.23
2019-05-19T03:47:42.154Z,15.63
2019-05-19T03:50:09.387Z,16.27
2019-05-19T03:52:36.680Z,15.30
2019-05-19T03:55:04.164Z,16.20
2019-05-19T03:57:31.381Z,18.60
2019-05-19T03:59:58.635Z,17.65
2019-05-19T04:02:25.882Z,19.33
2019-05-19T04:04:53.219Z,22.07
2019-05-19T04:07:20.455Z,22.77
2019-05-19T04:09:47.712Z,25.73
2019-05-19T04:12:15.040Z,27.22
2019-05-19T04:14:42.251Z,27.50
2019-05-19T04:17:09.525Z,28.10
2019-05-19T04:19:36.887Z,30.93
2019-05-19T04:22:04.266Z,34.53
2019-05-19T04:24:31.908Z,32.37
2019-05-19T04:26:59.280Z,32.03
2019-05-19T04:29:26.536Z,32.00
2019-05-19T04:31:53.772Z,33.53
2019-05-19T04:34:21.013Z,33.15
2019-05-19T04:36:48.247Z,34.57
2019-05-19T04:39:15.479Z,33.77
2019-05-19T04:41:42.784Z,31.13
2019-05-19T04:44:10.132Z,34.10
2019-05-19T04:46:37.350Z,32.63
2019-05-19T04:49:04.567Z,32.83
2019-05-19T04:51:31.799Z,34.60
2019-05-19T04:53:59.045Z,31.45
2019-05-19T04:56:26.432Z,30.37
2019-05-19T04:58:53.651Z,29.40
2019-05-19T05:01:20.892Z,25.13
2019-05-19T05:03:48.100Z,24.83
2019-05-19T05:06:15.397Z,24.97
2019-05-19T05:08:42.739Z,23.30
2019-05-19T05:11:09.998Z,24.67
2019-05-19T05:13:37.248Z,25.60
2019-05-19T05:16:04.486Z,23.90
2019-05-19T05:18:31.716Z,25.13
2019-05-19T05:20:58.960Z,24.10
2019-05-19T05:23:26.239Z,25.10
2019-05-19T05:25:53.463Z,25.63
2019-05-19T05:28:20.686Z,23.83
2019-05-19T05:30:47.925Z,24.27
2019-05-19T05:33:15.154Z,24.93
2019-05-19T05:35:42.432Z,25.83
2019-05-19T05:38:09.764Z,21.93
2019-05-19T05:40:36.983Z,24.70
2019-05-19T05:43:04.261Z,25.27
2019-05-19T05:45:31.627Z,24.90
2019-05-19T05:47:58.939Z,25.07
2019-05-19T05:50:26.183Z,25.47
2019-05-19T05:52:53.483Z,25.40
2019-05-19T05:55:20.736Z,23.33
2019-05-19T05:57:47.959Z,25.60
2019-05-19T06:00:16.084Z,27.37
2019-05-19T06:02:45.358Z,26.53
2019-05-19T06:05:12.720Z,27.63
2019-05-19T06:07:40.102Z,30.50
2019-05-19T06:10:07.654Z,29.25
2019-05-19T06:12:34.951Z,27.90
2019-05-19T06:15:02.307Z,28.17
2019-05-19T06:17:29.539Z,26.62
2019-05-19T06:19:56.818Z,26.57
2019-05-19T06:22:24.080Z,28.55
2019-05-19T06:24:51.412Z,25.93
2019-05-19T06:27:18.797Z,25.80
2019-05-19T06:29:46.139Z,24.25
2019-05-19T06:32:29.472Z,24.90
2019-05-19T06:34:56.704Z,24.70
2019-05-19T06:37:23.980Z,27.10
2019-05-19T06:39:51.404Z,24.23
2019-05-19T06:42:18.656Z,25.02
2019-05-19T06:44:45.920Z,26.67
2019-05-19T06:47:13.164Z,23.03
2019-05-19T06:49:40.403Z,23.12
2019-05-19T06:52:07.637Z,23.45
2019-05-19T06:54:39.100Z,24.07
2019-05-19T06:57:06.406Z,22.77
2019-05-19T06:59:34.283Z,22.90
2019-05-19T07:02:01.679Z,21.65
2019-05-19T07:04:29.033Z,23.15
2019-05-19T07:06:58.999Z,20.97
2019-05-19T07:09:26.743Z,22.10
2019-05-19T07:11:54.196Z,19.45
2019-05-19T07:14:21.531Z,21.05
2019-05-19T07:16:50.906Z,19.67
2019-05-19T07:19:18.181Z,17.15
2019-05-19T07:21:46.666Z,18.30
2019-05-19T07:24:17.271Z,16.15
2019-05-19T07:26:44.531Z,15.15
2019-05-19T07:29:12.646Z,15.37
2019-05-19T07:31:39.960Z,15.08
2019-05-19T07:34:09.074Z,15.32
2019-05-19T07:36:36.396Z,13.60
2019-05-19T07:39:05.402Z,14.65
2019-05-19T07:41:33.246Z,14.85
2019-05-19T07:44:01.753Z,14.10
2019-05-19T07:46:29.115Z,13.28
2019-05-19T07:48:56.378Z,13.13
2019-05-19T07:51:23.646Z,12.90
2019-05-19T07:53:51.104Z,11.68
2019-05-19T07:56:18.556Z,12.03
2019-05-19T07:58:45.827Z,11.38
2019-05-19T08:01:13.079Z,11.43
2019-05-19T08:03:40.396Z,11.28
2019-05-19T08:06:09.090Z,10.03
2019-05-19T08:08:36.413Z,10.13
2019-05-19T08:11:03.920Z,6.55
2019-05-19T08:13:31.260Z,6.30
2019-05-19T08:15:58.629Z,7.25
2019-05-19T08:18:25.925Z,5.47
2019-05-19T08:20:54.315Z,6.87
2019-05-19T08:23:21.845Z,5.92
2019-05-19T08:25:49.263Z,6.80
2019-05-19T08:28:16.601Z,7.70
2019-05-19T08:30:43.960Z,6.78
2019-05-19T08:33:11.923Z,5.50
2019-05-19T08:35:39.320Z,5.25
2019-05-19T08:38:06.592Z,4.65
2019-05-19T08:40:34.026Z,4.83
2019-05-19T08:43:01.331Z,3.98
2019-05-19T08:45:28.643Z,5.00
2019-05-19T08:47:55.892Z,4.85
2019-05-19T08:50:23.268Z,4.42
2019-05-19T08:52:50.517Z,3.77
2019-05-19T08:55:17.853Z,2.87
2019-05-19T08:57:45.147Z,2.92
2019-05-19T09:00:12.664Z,3.12
2019-05-19T09:02:39.949Z,3.58
2019-05-19T09:05:07.895Z,3.08
2019-05-19T09:07:35.144Z,3.72
2019-05-19T09:10:02.521Z,4.03
2019-05-19T09:12:29.900Z,3.62
2019-05-19T09:14:57.154Z,3.05
2019-05-19T09:17:24.439Z,4.17
2019-05-19T09:19:51.703Z,3.90
2019-05-19T09:22:19.072Z,4.15
2019-05-19T09:24:46.339Z,4.37
2019-05-19T09:27:13.671Z,4.05
2019-05-19T09:29:41.039Z,4.20
2019-05-19T09:32:08.395Z,3.85
2019-05-19T09:34:35.776Z,3.55
2019-05-19T09:37:03.036Z,4.05
2019-05-19T09:39:30.289Z,3.65
2019-05-19T09:41:57.606Z,3.40
2019-05-19T09:44:24.922Z,4.03
2019-05-19T09:46:54.087Z,3.47
2019-05-19T09:49:34.524Z,3.62
2019-05-19T09:52:03.417Z,2.65
2019-05-19T09:54:43.775Z,2.60
2019-05-19T09:56:59.952Z,2.58
2019-05-19T09:59:27.460Z,2.90
2019-05-19T10:01:54.715Z,3.00
2019-05-19T10:04:22.115Z,4.40
2019-05-19T10:06:49.424Z,3.00
2019-05-19T10:09:49.943Z,3.05
2019-05-19T10:12:17.193Z,2.77
2019-05-19T10:14:44.654Z,2.85
2019-05-19T10:17:12.127Z,3.02
2019-05-19T10:19:39.750Z,2.70
2019-05-19T10:22:07.134Z,4.08
2019-05-19T10:24:34.614Z,2.98
2019-05-19T10:27:02.081Z,3.33
2019-05-19T10:29:29.437Z,3.58
2019-05-19T10:31:56.875Z,2.98
2019-05-19T10:34:43.734Z,2.87
2019-05-19T10:37:11.331Z,2.85
2019-05-19T10:39:38.755Z,2.80
2019-05-19T10:42:06.066Z,2.42
2019-05-19T10:44:33.361Z,2.83
2019-05-19T10:47:02.397Z,2.20
2019-05-19T10:49:29.723Z,2.50
2019-05-19T10:51:56.970Z,2.52
2019-05-19T10:54:24.220Z,2.12
2019-05-19T10:56:51.452Z,3.08
2019-05-19T10:59:18.720Z,2.33
2019-05-19T11:01:45.951Z,2.27
2019-05-19T11:04:13.259Z,2.70
2019-05-19T11:06:40.527Z,2.58
2019-05-19T11:09:07.888Z,2.15
2019-05-19T11:11:35.688Z,2.30
2019-05-19T11:14:03.433Z,3.17
2019-05-19T11:16:30.901Z,2.45
2019-05-19T11:18:59.078Z,2.67
2019-05-19T11:21:26.517Z,2.67
2019-05-19T11:23:54.021Z,2.40
2019-05-19T11:26:21.375Z,1.70
2019-05-19T11:28:48.665Z,2.12
2019-05-19T11:31:16.138Z,2.30
2019-05-19T11:33:43.867Z,2.25
2019-05-19T11:36:11.366Z,2.80
2019-05-19T11:38:39.816Z,2.17
2019-05-19T11:41:07.484Z,1.85
2019-05-19T11:43:34.926Z,2.02
2019-05-19T11:46:02.267Z,2.40
2019-05-19T11:48:29.636Z,2.62
2019-05-19T11:50:57.347Z,3.00
2019-05-19T11:53:24.751Z,3.12
2019-05-19T11:56:05.812Z,2.35
2019-05-19T11:58:22.316Z,2.05
2019-05-19T12:00:49.640Z,2.52
2019-05-19T12:03:18.247Z,2.20
2019-05-19T12:05:47.150Z,2.00
2019-05-19T12:08:14.655Z,1.65
2019-05-19T12:10:42.291Z,2.55
2019-05-19T12:13:09.576Z,2.33
2019-05-19T12:15:36.864Z,3.08
2019-05-19T12:18:04.132Z,2.15
2019-05-19T12:20:31.406Z,1.60
2019-05-19T12:22:58.751Z,2.30
2019-05-19T12:25:26.025Z,2.15
2019-05-19T12:27:53.288Z,2.20
2019-05-19T12:30:20.649Z,1.87
2019-05-19T12:32:47.945Z,1.80
2019-05-19T12:35:15.374Z,1.42
2019-05-19T12:37:42.603Z,2.37
2019-05-19T12:40:09.948Z,2.47
2019-05-19T12:42:37.287Z,2.10
2019-05-19T12:45:04.675Z,1.67
2019-05-19T12:47:31.961Z,2.00
2019-05-19T12:49:59.221Z,1.72
2019-05-19T12:52:26.439Z,1.77
2019-05-19T12:54:53.711Z,2.52
2019-05-19T12:57:21.435Z,1.70
2019-05-19T12:59:48.951Z,1.72
2019-05-19T13:02:16.295Z,1.95
2019-05-19T13:04:43.728Z,1.90
2019-05-19T13:07:10.999Z,1.80
2019-05-19T13:09:38.220Z,1.60
2019-05-19T13:12:05.535Z,2.00
2019-05-19T13:14:33.372Z,1.70
2019-05-19T13:17:00.926Z,1.82
2019-05-19T13:19:28.298Z,2.00
2019-05-19T13:21:56.038Z,2.35
2019-05-19T13:24:23.488Z,1.85
2019-05-19T13:26:56.545Z,1.70
2019-05-19T13:29:19.951Z,1.90
2019-05-19T13:31:47.299Z,1.98
2019-05-19T13:34:14.955Z,2.15
2019-05-19T13:36:42.223Z,1.57
2019-05-19T13:39:09.610Z,1.60
2019-05-19T13:41:37.744Z,1.60
2019-05-19T13:44:05.123Z,1.55
2019-05-19T13:46:32.557Z,1.37
2019-05-19T13:49:00.380Z,1.67
2019-05-19T13:51:27.985Z,1.35
2019-05-19T13:53:55.249Z,1.80
2019-05-19T13:56:22.547Z,1.60
2019-05-19T13:58:49.803Z,1.50
2019-05-19T14:01:28.116Z,1.50
2019-05-19T14:03:46.355Z,1.42
2019-05-19T14:06:13.968Z,1.47
2019-05-19T14:08:41.371Z,1.50
2019-05-19T14:11:08.635Z,1.40
2019-05-19T14:13:35.968Z,1.35
2019-05-19T14:16:03.237Z,1.37
2019-05-19T14:18:30.485Z,1.40
2019-05-19T14:20:57.887Z,1.25
2019-05-19T14:23:25.184Z,0.90
2019-05-19T14:25:52.415Z,1.12
2019-05-19T14:28:19.675Z,1.00
2019-05-19T14:30:47.974Z,1.12
2019-05-19T14:33:15.335Z,1.12
2019-05-19T14:35:42.591Z,1.42
2019-05-19T14:38:09.991Z,4.42
2019-05-19T14:40:37.214Z,1.60
2019-05-19T14:43:04.461Z,1.50
2019-05-19T14:45:31.933Z,0.98
2019-05-19T14:47:59.266Z,1.20
2019-05-19T14:50:26.532Z,0.78
2019-05-19T14:52:55.351Z,1.17
2019-05-19T14:55:22.670Z,0.98
2019-05-19T14:57:50.032Z,1.40
2019-05-19T15:00:17.886Z,0.95
2019-05-19T15:02:45.111Z,1.40
2019-05-19T15:05:12.753Z,1.17
2019-05-19T15:07:40.032Z,1.10
2019-05-19T15:10:08.024Z,1.27
2019-05-19T15:12:35.369Z,1.60
2019-05-19T15:15:02.798Z,1.52
2019-05-19T15:17:30.169Z,0.90
2019-05-19T15:19:57.538Z,1.10
2019-05-19T15:22:24.843Z,1.15
2019-05-19T15:24:52.258Z,1.40
2019-05-19T15:27:19.511Z,1.45
2019-05-19T15:29:48.338Z,1.00
2019-05-19T15:32:16.499Z,1.70
2019-05-19T15:34:43.719Z,1.62
2019-05-19T15:37:10.975Z,1.30
2019-05-19T15:39:38.263Z,1.20
2019-05-19T15:42:05.512Z,1.40
2019-05-19T15:44:32.754Z,1.65
2019-05-19T15:47:00.028Z,1.12
2019-05-19T15:49:27.305Z,1.30
2019-05-19T15:52:02.246Z,1.35
2019-05-19T15:54:23.907Z,1.50
2019-05-19T15:56:51.432Z,1.32
2019-05-19T15:59:18.791Z,1.40
2019-05-19T16:01:46.013Z,1.62
2019-05-19T16:04:13.394Z,1.30
2019-05-19T16:06:40.755Z,1.37
2019-05-19T16:09:08.079Z,1.35
2019-05-19T16:11:35.427Z,0.78
2019-05-19T16:14:02.775Z,1.40
2019-05-19T16:16:30.035Z,1.25
2019-05-19T16:18:57.303Z,1.30
2019-05-19T16:21:24.539Z,2.05
2019-05-19T16:23:51.812Z,1.35
2019-05-19T16:26:19.044Z,1.50
2019-05-19T16:28:46.306Z,1.12
2019-05-19T16:31:13.556Z,1.37
2019-05-19T16:33:40.791Z,1.20
2019-05-19T16:36:08.161Z,1.20
2019-05-19T16:38:35.487Z,1.30
2019-05-19T16:41:02.812Z,1.10
2019-05-19T16:43:30.131Z,1.57
2019-05-19T16:45:57.368Z,1.75
2019-05-19T16:48:24.747Z,2.40
2019-05-19T16:50:52.064Z,1.55
2019-05-19T16:53:20.319Z,2.35
2019-05-19T16:55:47.595Z,2.37
2019-05-19T16:58:21.237Z,3.83
2019-05-19T17:00:44.056Z,3.67
2019-05-19T17:03:11.438Z,3.83
2019-05-19T17:05:38.948Z,3.70
2019-05-19T17:08:06.432Z,4.00
2019-05-19T17:10:33.704Z,3.47
2019-05-19T17:13:01.028Z,3.80
2019-05-19T17:15:28.286Z,4.00
2019-05-19T17:17:55.708Z,4.20
2019-05-19T17:20:22.960Z,4.30
2019-05-19T17:22:50.196Z,3.45
2019-05-19T17:25:17.531Z,3.55
2019-05-19T17:27:44.798Z,3.40
2019-05-19T17:30:12.619Z,3.77
2019-05-19T17:32:39.955Z,4.00
2019-05-19T17:35:07.303Z,2.90
2019-05-19T17:37:34.556Z,3.35
2019-05-19T17:40:01.975Z,3.17
2019-05-19T17:42:29.333Z,3.40
2019-05-19T17:44:56.604Z,2.67
2019-05-19T17:47:23.912Z,2.92
2019-05-19T17:49:51.147Z,3.15
2019-05-19T17:52:18.383Z,2.92
2019-05-19T17:54:45.688Z,3.25
2019-05-19T17:57:32.568Z,3.75
2019-05-19T18:00:00.895Z,3.33
2019-05-19T18:02:28.210Z,3.08
2019-05-19T18:04:55.547Z,3.50
2019-05-19T18:07:22.817Z,3.25
2019-05-19T18:09:50.139Z,2.58
2019-05-19T18:12:17.513Z,3.45
2019-05-19T18:14:44.852Z,3.30
2019-05-19T18:17:12.084Z,3.22
2019-05-19T18:19:39.335Z,3.17
2019-05-19T18:22:07.015Z,3.42
2019-05-19T18:24:34.929Z,3.02
2019-05-19T18:27:02.544Z,3.30
2019-05-19T18:29:31.766Z,3.25
2019-05-19T18:31:59.277Z,3.40
2019-05-19T18:34:26.501Z,2.87
2019-05-19T18:36:53.731Z,3.10
2019-05-19T18:39:21.009Z,3.33
2019-05-19T18:41:48.332Z,3.50
2019-05-19T18:44:15.598Z,3.80
2019-05-19T18:46:43.511Z,3.50
2019-05-19T18:49:10.807Z,4.10
2019-05-19T18:51:38.056Z,3.80
2019-05-19T18:54:05.275Z,4.08
2019-05-19T18:56:32.521Z,3.85
2019-05-19T18:59:00.136Z,4.37
2019-05-19T19:01:28.401Z,4.97
2019-05-19T19:03:55.996Z,4.45
2019-05-19T19:06:28.396Z,4.00
2019-05-19T19:08:55.660Z,3.90
2019-05-19T19:11:22.888Z,3.77
2019-05-19T19:13:50.157Z,4.15
2019-05-19T19:16:17.387Z,4.22
2019-05-19T19:18:45.997Z,3.55
2019-05-19T19:21:13.328Z,4.42
2019-05-19T19:23:40.582Z,4.03
2019-05-19T19:26:07.948Z,4.78
2019-05-19T19:28:35.267Z,5.28
2019-05-19T19:31:02.518Z,5.35
2019-05-19T19:33:29.924Z,5.03
2019-05-19T19:35:57.367Z,5.70
2019-05-19T19:38:24.643Z,10.03
2019-05-19T19:40:54.173Z,10.55
2019-05-19T19:43:21.302Z,7.08
2019-05-19T19:45:48.648Z,7.35
2019-05-19T19:48:16.047Z,6.58
2019-05-19T19:50:43.371Z,6.70
2019-05-19T19:53:10.707Z,5.90
2019-05-19T19:55:37.977Z,5.87
2019-05-19T19:58:05.332Z,5.87
2019-05-19T20:00:40.164Z,7.22
2019-05-19T20:03:07.509Z,6.87
2019-05-19T20:05:34.759Z,7.12
2019-05-19T20:08:02.123Z,6.40
2019-05-19T20:10:29.394Z,5.65
2019-05-19T20:12:56.780Z,5.78
2019-05-19T20:15:24.004Z,6.25
2019-05-19T20:17:51.360Z,7.05
2019-05-19T20:20:18.607Z,16.75
2019-05-19T20:22:45.892Z,98.72
2019-05-19T20:25:13.206Z,119.20
2019-05-19T20:27:40.441Z,23.15
2019-05-19T20:30:07.888Z,17.55
2019-05-19T20:32:35.216Z,15.78
2019-05-19T20:35:02.583Z,13.48
2019-05-19T20:37:29.831Z,14.28
2019-05-19T20:39:57.265Z,13.88
2019-05-19T20:42:24.749Z,8.63
2019-05-19T20:44:52.040Z,8.38
2019-05-19T20:47:19.304Z,6.90
2019-05-19T20:49:46.600Z,7.95
2019-05-19T20:52:13.847Z,7.45
2019-05-19T20:54:41.107Z,6.85
2019-05-19T20:57:08.391Z,7.47
2019-05-19T20:59:35.756Z,7.15
2019-05-19T21:02:03.043Z,6.35
2019-05-19T21:04:30.359Z,6.05
2019-05-19T21:06:57.617Z,5.90
2019-05-19T21:09:24.912Z,5.42
2019-05-19T21:11:52.263Z,5.35
2019-05-19T21:14:19.508Z,5.00
2019-05-19T21:16:46.830Z,5.33
2019-05-19T21:19:14.071Z,4.55
2019-05-19T21:21:41.315Z,5.17
2019-05-19T21:24:08.557Z,5.10
2019-05-19T21:26:35.941Z,5.10
2019-05-19T21:29:03.180Z,4.87
2019-05-19T21:31:30.433Z,6.30
2019-05-19T21:33:57.683Z,5.87
2019-05-19T21:36:24.963Z,5.40
2019-05-19T21:38:52.186Z,4.95
2019-05-19T21:41:19.411Z,5.53
2019-05-19T21:43:46.687Z,4.42
2019-05-19T21:46:13.928Z,4.47
2019-05-19T21:48:41.180Z,4.50
2019-05-19T21:51:08.458Z,4.45
2019-05-19T21:53:36.061Z,4.63
2019-05-19T21:56:03.581Z,4.45
2019-05-19T21:58:31.004Z,4.70
2019-05-19T22:00:58.428Z,4.53
2019-05-19T22:03:25.665Z,4.50
2019-05-19T22:05:53.846Z,4.28
2019-05-19T22:08:21.166Z,5.13
2019-05-19T22:10:48.508Z,5.17
2019-05-19T22:13:15.843Z,5.20
2019-05-19T22:15:43.127Z,5.25
2019-05-19T22:18:10.407Z,5.53
2019-05-19T22:20:37.830Z,4.72
2019-05-19T22:23:05.203Z,4.37
2019-05-19T22:25:32.429Z,4.78
2019-05-19T22:27:59.663Z,5.90
2019-05-19T22:30:26.915Z,5.12
2019-05-19T22:32:54.267Z,5.17
2019-05-19T22:35:21.617Z,5.37
2019-05-19T22:37:48.870Z,5.43
2019-05-19T22:40:16.646Z,5.05
2019-05-19T22:42:44.820Z,5.17
2019-05-19T22:45:12.171Z,4.92
2019-05-19T22:47:39.401Z,5.50
2019-05-19T22:50:07.103Z,5.10
2019-05-19T22:52:34.367Z,5.55
2019-05-19T22:55:01.688Z,5.17
2019-05-19T22:57:28.924Z,5.47
2019-05-19T22:59:56.164Z,6.10
2019-05-19T23:02:23.446Z,5.30
2019-05-19T23:04:50.788Z,5.47
2019-05-19T23:07:18.133Z,5.12
2019-05-19T23:09:45.407Z,4.57
2019-05-19T23:12:12.653Z,4.55
2019-05-19T23:14:39.897Z,4.60
2019-05-19T23:17:07.239Z,3.87
2019-05-19T23:19:34.500Z,3.40
2019-05-19T23:22:01.750Z,3.40
2019-05-19T23:24:28.968Z,3.65
2019-05-19T23:26:56.231Z,3.93
2019-05-19T23:29:23.481Z,3.50
2019-05-19T23:31:50.727Z,3.40
2019-05-19T23:34:18.040Z,3.30
2019-05-19T23:36:45.303Z,2.73
2019-05-19T23:39:12.551Z,3.35
2019-05-19T23:41:39.861Z,3.10
2019-05-19T23:44:07.159Z,3.27
2019-05-19T23:46:34.420Z,2.45
2019-05-19T23:49:01.781Z,2.55
2019-05-19T23:51:29.019Z,2.63
2019-05-19T23:53:56.263Z,2.87
2019-05-19T23:56:23.487Z,3.07
2019-05-19T23:58:50.746Z,2.73
